Time;durP1;ratioP1;P1;durP2;ratioP2;P2;SDS_P1;SDS_P2;PMS_P1;PMS_P2;Temp;Humidity;BMP_temperature;BMP_pressure;BME280_temperature;BME280_humidity;BME280_pressure;Samples;Min_cycle;Max_cycle;Signal;HPM_P1;HPM_P2
2022/05/20 00:02:24;;;;;;;9.85;4.78;;;;;;;;;;4959622;29;20305;-42
2022/05/20 00:04:51;;;;;;;8.13;4.10;;;;;;;;;;4959286;29;20208;-42
2022/05/20 00:07:18;;;;;;;11.30;4.80;;;;;;;;;;4959651;29;20291;-44
2022/05/20 00:09:45;;;;;;;9.75;4.50;;;;;;;;;;4960346;29;20246;-42
2022/05/20 00:12:12;;;;;;;7.40;4.05;;;;;;;;;;4959541;29;20282;-42
2022/05/20 00:14:39;;;;;;;15.05;4.80;;;;;;;;;;4959799;29;20274;-42
2022/05/20 00:17:06;;;;;;;18.52;5.07;;;;;;;;;;4959174;29;20258;-42
2022/05/20 00:19:33;;;;;;;11.05;5.03;;;;;;;;;;4959430;29;20211;-42
2022/05/20 00:22:00;;;;;;;14.13;4.97;;;;;;;;;;4959627;29;20234;-42
2022/05/20 00:24:28;;;;;;;11.75;4.68;;;;;;;;;;4959177;29;20258;-42
2022/05/20 00:26:56;;;;;;;13.30;5.20;;;;;;;;;;4959561;29;20214;-42
2022/05/20 00:29:24;;;;;;;9.13;4.38;;;;;;;;;;4959491;29;20207;-42
2022/05/20 00:31:51;;;;;;;12.07;4.72;;;;;;;;;;4959740;29;20244;-42
2022/05/20 00:34:19;;;;;;;9.02;4.45;;;;;;;;;;4959816;29;20350;-42
2022/05/20 00:36:46;;;;;;;10.23;4.05;;;;;;;;;;4959651;29;20230;-42
2022/05/20 00:39:12;;;;;;;11.75;4.78;;;;;;;;;;4958762;29;20599;-42
2022/05/20 00:41:39;;;;;;;12.45;4.55;;;;;;;;;;4959232;29;20227;-42
2022/05/20 00:44:06;;;;;;;10.25;4.50;;;;;;;;;;4958841;29;20290;-42
2022/05/20 00:46:33;;;;;;;12.20;4.93;;;;;;;;;;4958847;29;20235;-42
2022/05/20 00:49:04;;;;;;;11.27;4.60;;;;;;;;;;4959360;29;20202;-43
2022/05/20 00:51:46;;;;;;;7.88;4.10;;;;;;;;;;4959030;29;20215;-42
2022/05/20 00:54:34;;;;;;;7.20;4.53;;;;;;;;;;4958281;29;20270;-41
2022/05/20 00:57:04;;;;;;;15.35;4.70;;;;;;;;;;4941586;29;20203;-42
2022/05/20 00:59:34;;;;;;;11.02;5.00;;;;;;;;;;4958917;29;20219;-42
2022/05/20 01:02:07;;;;;;;10.45;5.05;;;;;;;;;;4958583;29;20231;-42
2022/05/20 01:04:35;;;;;;;10.18;4.38;;;;;;;;;;4957805;29;20215;-42
2022/05/20 01:07:02;;;;;;;12.63;5.03;;;;;;;;;;4957757;29;20199;-42
2022/05/20 01:09:29;;;;;;;9.25;5.10;;;;;;;;;;4958211;29;20238;-42
2022/05/20 01:11:56;;;;;;;9.13;5.00;;;;;;;;;;4958480;29;20529;-42
2022/05/20 01:14:25;;;;;;;10.65;5.20;;;;;;;;;;4958394;29;20207;-42
2022/05/20 01:16:52;;;;;;;12.57;4.70;;;;;;;;;;4941587;29;20218;-42
2022/05/20 01:19:31;;;;;;;10.68;4.82;;;;;;;;;;4957372;29;20203;-42
2022/05/20 01:21:58;;;;;;;10.70;5.38;;;;;;;;;;4958181;29;20227;-42
2022/05/20 01:24:26;;;;;;;9.55;5.10;;;;;;;;;;4958429;29;20223;-42
2022/05/20 01:26:53;;;;;;;15.40;5.15;;;;;;;;;;4958681;29;20211;-42
2022/05/20 01:29:20;;;;;;;10.68;5.93;;;;;;;;;;4941359;29;20274;-42
2022/05/20 01:31:47;;;;;;;11.60;4.72;;;;;;;;;;4957802;29;20246;-42
2022/05/20 01:34:15;;;;;;;9.15;5.00;;;;;;;;;;4957973;29;20203;-42
2022/05/20 01:36:41;;;;;;;13.52;4.93;;;;;;;;;;4958079;29;20207;-42
2022/05/20 01:39:09;;;;;;;10.82;4.90;;;;;;;;;;4958208;29;20207;-43
2022/05/20 01:41:38;;;;;;;8.80;4.63;;;;;;;;;;4957904;29;20223;-42
2022/05/20 01:44:24;;;;;;;14.10;4.68;;;;;;;;;;4957690;29;20622;-42
2022/05/20 01:47:11;;;;;;;11.95;4.93;;;;;;;;;;4941501;29;20207;-42
2022/05/20 01:49:44;;;;;;;12.70;5.13;;;;;;;;;;4941769;29;20215;-43
2022/05/20 01:52:26;;;;;;;8.40;4.28;;;;;;;;;;4957595;29;20227;-41
2022/05/20 01:54:59;;;;;;;9.40;4.28;;;;;;;;;;4940897;29;20577;-42
2022/05/20 01:57:41;;;;;;;8.20;4.28;;;;;;;;;;4957157;29;20282;-43
2022/05/20 02:00:12;;;;;;;14.73;5.03;;;;;;;;;;4957474;29;20200;-42
2022/05/20 02:02:51;;;;;;;11.00;4.70;;;;;;;;;;4957144;29;20581;-42
2022/05/20 02:05:48;;;;;;;10.57;4.50;;;;;;;;;;4940416;29;20214;-42
2022/05/20 02:08:39;;;;;;;8.13;4.43;;;;;;;;;;4948769;29;20218;-42
2022/05/20 02:11:09;;;;;;;7.93;4.07;;;;;;;;;;4940407;29;20306;-42
2022/05/20 02:13:39;;;;;;;11.85;4.30;;;;;;;;;;4956403;29;20215;-42
2022/05/20 02:16:11;;;;;;;8.80;4.30;;;;;;;;;;4940115;29;20203;-42
2022/05/20 02:18:41;;;;;;;7.75;4.30;;;;;;;;;;4957192;29;20229;-43
2022/05/20 02:21:14;;;;;;;9.02;4.32;;;;;;;;;;4956658;29;20286;-42
2022/05/20 02:23:55;;;;;;;10.43;4.32;;;;;;;;;;4956928;29;20262;-42
2022/05/20 02:26:24;;;;;;;14.30;4.28;;;;;;;;;;4955960;29;20265;-43
2022/05/20 02:29:04;;;;;;;9.02;4.20;;;;;;;;;;4940280;29;20203;-42
2022/05/20 02:31:35;;;;;;;7.07;4.05;;;;;;;;;;4955769;29;20322;-41
2022/05/20 02:34:02;;;;;;;8.90;4.55;;;;;;;;;;4956764;29;20216;-41
2022/05/20 02:36:34;;;;;;;10.45;4.70;;;;;;;;;;4956594;29;20262;-44
2022/05/20 02:39:04;;;;;;;11.88;4.38;;;;;;;;;;4957113;29;20222;-44
2022/05/20 02:41:31;;;;;;;9.50;4.53;;;;;;;;;;4956395;29;20227;-45
2022/05/20 02:43:59;;;;;;;8.25;4.18;;;;;;;;;;4956668;29;20278;-42
2022/05/20 02:46:25;;;;;;;8.38;4.47;;;;;;;;;;4956415;29;20211;-41
2022/05/20 02:48:53;;;;;;;9.95;4.82;;;;;;;;;;4956491;29;20199;-43
2022/05/20 02:51:19;;;;;;;8.13;4.38;;;;;;;;;;4956349;29;20211;-44
2022/05/20 02:53:47;;;;;;;8.88;4.63;;;;;;;;;;4956629;29;20343;-42
2022/05/20 02:56:14;;;;;;;9.73;4.75;;;;;;;;;;4956609;29;20211;-42
2022/05/20 03:04:13;;;;;;;11.60;4.30;;;;;;;;;;4956846;29;20203;-42
2022/05/20 03:06:42;;;;;;;8.73;4.25;;;;;;;;;;4956639;29;20207;-44
2022/05/20 03:09:11;;;;;;;10.18;4.72;;;;;;;;;;4956516;29;20630;-42
2022/05/20 03:11:41;;;;;;;11.52;4.15;;;;;;;;;;4956488;29;20211;-42
2022/05/20 03:14:11;;;;;;;13.10;4.10;;;;;;;;;;4956771;29;20187;-42
2022/05/20 03:16:38;;;;;;;9.98;4.40;;;;;;;;;;4956567;29;20208;-42
2022/05/20 03:19:05;;;;;;;9.27;4.80;;;;;;;;;;4958807;28;20290;-42
2022/05/20 03:21:33;;;;;;;7.57;4.22;;;;;;;;;;4960526;29;20223;-42
2022/05/20 03:24:01;;;;;;;8.65;4.53;;;;;;;;;;4960398;29;20721;-42
2022/05/20 03:26:29;;;;;;;9.73;4.15;;;;;;;;;;4960277;29;20638;-41
2022/05/20 03:29:02;;;;;;;9.57;4.10;;;;;;;;;;4960198;29;20215;-42
2022/05/20 03:31:31;;;;;;;10.45;4.22;;;;;;;;;;4960277;29;20231;-44
2022/05/20 03:34:05;;;;;;;7.55;4.13;;;;;;;;;;4957539;29;20346;-44
2022/05/20 03:36:33;;;;;;;6.25;3.88;;;;;;;;;;4958552;29;20208;-43
2022/05/20 03:39:01;;;;;;;7.18;3.80;;;;;;;;;;4959191;29;20638;-42
2022/05/20 03:41:28;;;;;;;16.98;4.30;;;;;;;;;;4959660;29;20219;-43
2022/05/20 03:44:01;;;;;;;8.77;4.18;;;;;;;;;;4959389;29;20211;-43
2022/05/20 03:46:28;;;;;;;8.15;4.32;;;;;;;;;;4959354;29;20254;-42
2022/05/20 03:48:56;;;;;;;7.90;3.60;;;;;;;;;;4959854;29;20537;-41
2022/05/20 03:51:24;;;;;;;8.30;4.00;;;;;;;;;;4960003;29;20219;-42
2022/05/20 03:53:50;;;;;;;10.52;3.92;;;;;;;;;;4954048;28;20246;-42
2022/05/20 03:56:17;;;;;;;6.60;3.75;;;;;;;;;;4947952;29;20248;-42
2022/05/20 03:58:44;;;;;;;8.48;3.90;;;;;;;;;;4946152;29;20613;-42
2022/05/20 04:03:58;;;;;;;10.07;3.60;;;;;;;;;;4946469;29;20236;-43
2022/05/20 04:06:25;;;;;;;10.60;3.65;;;;;;;;;;4958690;29;20243;-44
2022/05/20 04:08:52;;;;;;;10.60;4.35;;;;;;;;;;4957690;28;20219;-43
2022/05/20 04:11:19;;;;;;;11.55;3.78;;;;;;;;;;4942447;29;20224;-44
2022/05/20 04:13:46;;;;;;;8.65;3.75;;;;;;;;;;4956864;29;20219;-45
2022/05/20 04:16:15;;;;;;;12.85;4.82;;;;;;;;;;4955208;29;20230;-41
2022/05/20 04:18:43;;;;;;;11.50;5.90;;;;;;;;;;4957885;29;20685;-42
2022/05/20 04:21:14;;;;;;;6.00;4.10;;;;;;;;;;4958751;28;20286;-42
2022/05/20 04:23:42;;;;;;;8.15;3.28;;;;;;;;;;4957167;29;20238;-47
2022/05/20 04:26:09;;;;;;;11.15;3.90;;;;;;;;;;4957975;28;20239;-41
2022/05/20 04:28:36;;;;;;;7.80;3.85;;;;;;;;;;4958476;29;20239;-40
2022/05/20 04:31:05;;;;;;;8.30;3.25;;;;;;;;;;4950906;28;20242;-41
2022/05/20 04:33:33;;;;;;;15.20;8.15;;;;;;;;;;4957066;29;20231;-44
2022/05/20 04:36:00;;;;;;;11.25;6.63;;;;;;;;;;4940262;29;20229;-41
2022/05/20 04:38:27;;;;;;;11.02;5.70;;;;;;;;;;4957058;29;20231;-46
2022/05/20 04:49:11;;;;;;;7.30;3.88;;;;;;;;;;4957704;29;20218;-43
2022/05/20 04:51:39;;;;;;;8.98;4.03;;;;;;;;;;4957355;29;20227;-40
2022/05/20 04:56:53;;;;;;;10.88;4.05;;;;;;;;;;4957396;29;20219;-41
2022/05/20 04:59:20;;;;;;;11.25;5.32;;;;;;;;;;4957156;29;20282;-43
2022/05/20 05:01:48;;;;;;;8.88;4.28;;;;;;;;;;4956948;29;20231;-42
2022/05/20 05:04:17;;;;;;;9.10;3.30;;;;;;;;;;4955249;29;20239;-42
2022/05/20 05:06:44;;;;;;;10.75;3.50;;;;;;;;;;4950591;29;20226;-42
2022/05/20 05:09:12;;;;;;;12.68;4.20;;;;;;;;;;4956649;29;20298;-43
2022/05/20 05:11:40;;;;;;;13.13;3.95;;;;;;;;;;4953051;28;20662;-45
2022/05/20 05:14:09;;;;;;;10.15;5.07;;;;;;;;;;4957259;29;20226;-42
2022/05/20 05:16:37;;;;;;;7.80;3.85;;;;;;;;;;4956964;29;20721;-41
2022/05/20 05:19:04;;;;;;;8.23;3.78;;;;;;;;;;4953590;29;20558;-42
2022/05/20 05:21:32;;;;;;;8.93;4.30;;;;;;;;;;4939935;29;20255;-41
2022/05/20 05:24:02;;;;;;;12.13;3.70;;;;;;;;;;4956594;29;20587;-42
2022/05/20 05:26:30;;;;;;;5.85;3.45;;;;;;;;;;4952190;29;20310;-43
2022/05/20 05:28:57;;;;;;;10.60;3.58;;;;;;;;;;4956003;29;20258;-42
2022/05/20 05:31:26;;;;;;;7.72;3.15;;;;;;;;;;4954085;28;20685;-46
2022/05/20 05:33:53;;;;;;;12.23;3.28;;;;;;;;;;4941197;29;20236;-45
2022/05/20 05:36:20;;;;;;;9.55;3.10;;;;;;;;;;4938130;29;20232;-41
2022/05/20 05:38:47;;;;;;;14.23;3.28;;;;;;;;;;4940538;29;20240;-43
2022/05/20 05:41:17;;;;;;;7.70;3.22;;;;;;;;;;4957168;28;20219;-41
2022/05/20 05:43:45;;;;;;;9.57;3.47;;;;;;;;;;4956862;29;20350;-41
2022/05/20 05:46:12;;;;;;;10.63;3.40;;;;;;;;;;4956797;29;20227;-42
2022/05/20 05:48:39;;;;;;;8.18;3.08;;;;;;;;;;4956279;29;20234;-41
2022/05/20 05:51:06;;;;;;;7.05;3.03;;;;;;;;;;4957100;29;20235;-42
2022/05/20 05:53:33;;;;;;;7.78;3.00;;;;;;;;;;4956016;29;20662;-40
2022/05/20 05:56:01;;;;;;;6.78;3.08;;;;;;;;;;4956350;28;20657;-43
2022/05/20 05:58:29;;;;;;;5.80;2.90;;;;;;;;;;4957230;29;20586;-41
2022/05/20 06:00:56;;;;;;;12.60;3.38;;;;;;;;;;4958010;29;20203;-41
2022/05/20 06:03:23;;;;;;;10.68;3.03;;;;;;;;;;4956685;29;20620;-41
2022/05/20 06:05:50;;;;;;;7.30;3.22;;;;;;;;;;4956607;29;20587;-42
2022/05/20 06:08:17;;;;;;;6.32;3.20;;;;;;;;;;4957427;29;20211;-43
2022/05/20 06:10:45;;;;;;;11.18;3.00;;;;;;;;;;4957530;29;20278;-41
2022/05/20 06:13:12;;;;;;;5.25;2.95;;;;;;;;;;4957020;29;20701;-41
2022/05/20 06:15:39;;;;;;;9.38;2.72;;;;;;;;;;4956969;29;20207;-41
2022/05/20 06:18:07;;;;;;;4.90;3.00;;;;;;;;;;4957368;29;20218;-41
2022/05/20 06:20:34;;;;;;;9.10;3.38;;;;;;;;;;4957322;29;20203;-43
2022/05/20 06:23:02;;;;;;;12.13;3.25;;;;;;;;;;4943342;29;20227;-41
2022/05/20 06:25:29;;;;;;;15.93;3.65;;;;;;;;;;4957497;29;20204;-43
2022/05/20 06:28:09;;;;;;;7.97;3.50;;;;;;;;;;4957197;29;20215;-42
2022/05/20 06:30:36;;;;;;;8.23;3.13;;;;;;;;;;4956605;29;20235;-42
2022/05/20 06:33:03;;;;;;;9.43;2.78;;;;;;;;;;4952896;29;20258;-41
2022/05/20 06:41:04;;;;;;;10.38;2.88;;;;;;;;;;4948913;29;20215;-41
2022/05/20 06:43:31;;;;;;;6.32;2.63;;;;;;;;;;4956613;29;20227;-42
2022/05/20 06:46:01;;;;;;;12.93;3.13;;;;;;;;;;4956983;29;20211;-42
2022/05/20 06:48:51;;;;;;;12.43;3.22;;;;;;;;;;4955553;29;20199;-41
2022/05/20 06:51:21;;;;;;;9.82;2.70;;;;;;;;;;4955606;29;20211;-43
2022/05/20 06:53:48;;;;;;;8.23;2.67;;;;;;;;;;4956286;28;20226;-41
2022/05/20 06:56:15;;;;;;;7.30;2.75;;;;;;;;;;4957261;29;20238;-41
2022/05/20 06:58:43;;;;;;;12.80;2.47;;;;;;;;;;4956741;29;20204;-43
2022/05/20 07:01:10;;;;;;;6.13;3.00;;;;;;;;;;4956407;29;20207;-43
2022/05/20 07:03:38;;;;;;;5.43;2.42;;;;;;;;;;4956321;29;20231;-42
2022/05/20 07:06:06;;;;;;;10.85;2.55;;;;;;;;;;4956768;29;20218;-42
2022/05/20 07:08:34;;;;;;;6.32;2.63;;;;;;;;;;4956200;29;20223;-42
2022/05/20 07:11:05;;;;;;;10.52;2.78;;;;;;;;;;4957108;29;20294;-42
2022/05/20 07:13:39;;;;;;;6.13;2.60;;;;;;;;;;4956376;29;20211;-43
2022/05/20 07:16:07;;;;;;;8.00;2.53;;;;;;;;;;4955482;29;20239;-44
2022/05/20 07:18:34;;;;;;;11.65;2.78;;;;;;;;;;4956693;29;20235;-44
2022/05/20 07:21:03;;;;;;;6.75;2.50;;;;;;;;;;4956926;29;20238;-42
2022/05/20 07:23:31;;;;;;;14.20;3.00;;;;;;;;;;4956180;29;20231;-42
2022/05/20 07:25:59;;;;;;;9.40;2.53;;;;;;;;;;4956779;29;20274;-42
2022/05/20 07:28:28;;;;;;;7.25;2.63;;;;;;;;;;4955223;29;20222;-42
2022/05/20 07:30:55;;;;;;;5.90;2.35;;;;;;;;;;4956156;29;20271;-42
2022/05/20 07:33:22;;;;;;;6.45;2.28;;;;;;;;;;4956144;29;20218;-43
2022/05/20 07:35:49;;;;;;;11.10;3.05;;;;;;;;;;4956110;29;20692;-42
2022/05/20 07:38:16;;;;;;;8.68;2.22;;;;;;;;;;4956443;29;20219;-43
2022/05/20 07:40:44;;;;;;;10.82;2.75;;;;;;;;;;4956254;29;20203;-44
2022/05/20 07:43:12;;;;;;;6.25;2.35;;;;;;;;;;4956117;29;20246;-42
2022/05/20 07:45:40;;;;;;;9.98;2.70;;;;;;;;;;4956330;29;20299;-42
2022/05/20 07:48:07;;;;;;;8.45;2.33;;;;;;;;;;4956351;29;20543;-42
2022/05/20 07:50:39;;;;;;;8.40;2.33;;;;;;;;;;4956375;29;20544;-43
2022/05/20 07:53:21;;;;;;;9.18;2.20;;;;;;;;;;4955274;29;20211;-42
2022/05/20 07:55:57;;;;;;;9.07;2.53;;;;;;;;;;4941809;29;20207;-42
2022/05/20 07:58:28;;;;;;;6.47;2.67;;;;;;;;;;4956658;29;20262;-42
2022/05/20 08:01:18;;;;;;;9.05;2.67;;;;;;;;;;4942241;29;20638;-42
2022/05/20 08:06:33;;;;;;;9.93;2.42;;;;;;;;;;4944747;29;20207;-42
2022/05/20 08:09:00;;;;;;;16.05;2.50;;;;;;;;;;4959423;29;20672;-42
2022/05/20 08:11:28;;;;;;;12.30;3.33;;;;;;;;;;4959889;29;20601;-43
2022/05/20 08:13:55;;;;;;;9.80;2.80;;;;;;;;;;4959220;29;20645;-42
2022/05/20 08:16:22;;;;;;;13.25;2.58;;;;;;;;;;4959499;29;20270;-42
2022/05/20 08:18:49;;;;;;;6.47;3.03;;;;;;;;;;4959178;29;20203;-42
2022/05/20 08:21:17;;;;;;;14.57;2.53;;;;;;;;;;4959135;29;20668;-43
2022/05/20 08:23:45;;;;;;;8.10;2.35;;;;;;;;;;4959380;29;20278;-42
2022/05/20 08:26:17;;;;;;;10.02;2.50;;;;;;;;;;4959146;29;20657;-42
2022/05/20 08:28:48;;;;;;;7.68;3.10;;;;;;;;;;4959021;29;20199;-44
2022/05/20 08:31:15;;;;;;;7.50;2.75;;;;;;;;;;4959243;29;20251;-43
2022/05/20 08:33:43;;;;;;;6.07;2.35;;;;;;;;;;4958960;29;20630;-42
2022/05/20 08:36:10;;;;;;;12.63;2.53;;;;;;;;;;4959109;29;20204;-42
2022/05/20 08:38:37;;;;;;;15.90;5.43;;;;;;;;;;4959133;29;20210;-42
2022/05/20 08:41:04;;;;;;;15.20;2.50;;;;;;;;;;4958251;29;20204;-42
2022/05/20 08:43:33;;;;;;;8.07;2.60;;;;;;;;;;4958590;29;20231;-42
2022/05/20 08:46:02;;;;;;;6.28;2.40;;;;;;;;;;4942700;29;20207;-42
2022/05/20 08:48:29;;;;;;;8.25;2.63;;;;;;;;;;4958721;29;20642;-42
2022/05/20 08:50:57;;;;;;;9.30;2.88;;;;;;;;;;4958600;29;20535;-42
2022/05/20 08:53:35;;;;;;;9.13;2.22;;;;;;;;;;4958684;29;20207;-42
2022/05/20 08:56:05;;;;;;;16.55;2.78;;;;;;;;;;4937676;29;20216;-42
2022/05/20 08:58:33;;;;;;;13.15;2.70;;;;;;;;;;4938870;29;20223;-44
2022/05/20 09:01:01;;;;;;;10.32;2.20;;;;;;;;;;4937989;29;20208;-42
2022/05/20 09:03:28;;;;;;;7.80;2.42;;;;;;;;;;4939052;29;20231;-42
2022/05/20 09:06:10;;;;;;;16.27;2.50;;;;;;;;;;4938999;29;20228;-43
2022/05/20 09:08:37;;;;;;;11.00;3.05;;;;;;;;;;4938429;29;20222;-41
2022/05/20 09:11:12;;;;;;;9.95;2.30;;;;;;;;;;4938257;29;20711;-43
2022/05/20 09:16:29;;;;;;;7.57;2.15;;;;;;;;;;4921452;29;20208;-42
2022/05/20 09:19:08;;;;;;;10.75;2.30;;;;;;;;;;4937897;29;20730;-42
2022/05/20 09:21:38;;;;;;;10.23;2.35;;;;;;;;;;4939361;29;20279;-44
2022/05/20 09:24:10;;;;;;;9.95;2.45;;;;;;;;;;4939166;29;20227;-42
2022/05/20 09:26:39;;;;;;;20.80;2.60;;;;;;;;;;4938390;29;20208;-42
2022/05/20 09:29:14;;;;;;;14.25;3.00;;;;;;;;;;4938044;29;20228;-42
2022/05/20 09:32:04;;;;;;;8.95;2.85;;;;;;;;;;4955531;29;20294;-43
2022/05/20 09:34:32;;;;;;;10.43;2.30;;;;;;;;;;4941320;29;20238;-42
2022/05/20 09:37:00;;;;;;;10.68;2.40;;;;;;;;;;4940305;29;20270;-44
2022/05/20 09:39:38;;;;;;;9.68;2.80;;;;;;;;;;4956676;29;20211;-42
2022/05/20 09:42:14;;;;;;;9.68;2.90;;;;;;;;;;4957660;29;20554;-44
2022/05/20 09:44:44;;;;;;;5.38;2.33;;;;;;;;;;4958692;29;20223;-42
2022/05/20 09:47:20;;;;;;;7.90;2.72;;;;;;;;;;4957885;29;20215;-44
2022/05/20 09:50:16;;;;;;;6.70;2.53;;;;;;;;;;4953395;28;20222;-43
2022/05/20 09:52:57;;;;;;;15.40;2.65;;;;;;;;;;4925628;28;20249;-45
2022/05/20 09:55:31;;;;;;;6.13;2.75;;;;;;;;;;4939783;29;20599;-43
2022/05/20 09:58:11;;;;;;;8.10;2.42;;;;;;;;;;4954610;29;20219;-44
2022/05/20 10:00:41;;;;;;;5.45;2.28;;;;;;;;;;4955284;29;20891;-46
2022/05/20 10:03:22;;;;;;;10.32;2.45;;;;;;;;;;4954470;29;20528;-45
2022/05/20 10:05:54;;;;;;;12.38;2.20;;;;;;;;;;4951333;29;20597;-44
2022/05/20 10:08:24;;;;;;;8.05;2.67;;;;;;;;;;4939296;29;20290;-44
2022/05/20 10:11:26;;;;;;;13.38;2.55;;;;;;;;;;4955579;29;20275;-43
2022/05/20 10:14:08;;;;;;;6.10;2.30;;;;;;;;;;4955991;28;20226;-43
2022/05/20 10:16:45;;;;;;;7.88;2.28;;;;;;;;;;4954508;29;20215;-46
2022/05/20 10:19:37;;;;;;;18.48;2.80;;;;;;;;;;4953496;28;20654;-44
2022/05/20 10:22:29;;;;;;;11.70;2.90;;;;;;;;;;4968945;28;20223;-42
2022/05/20 10:25:17;;;;;;;8.52;2.78;;;;;;;;;;4941758;29;20227;-45
2022/05/20 10:28:12;;;;;;;16.50;3.22;;;;;;;;;;4939218;29;20281;-44
2022/05/20 10:33:40;;;;;;;12.48;3.00;;;;;;;;;;4906914;29;20318;-44
2022/05/20 10:36:15;;;;;;;10.98;3.08;;;;;;;;;;4955431;28;20294;-43
2022/05/20 10:39:10;;;;;;;8.38;2.70;;;;;;;;;;4954300;29;20562;-43
2022/05/20 10:42:06;;;;;;;5.93;2.28;;;;;;;;;;4955646;29;20222;-42
2022/05/20 10:51:32;;;;;;;11.38;2.53;;;;;;;;;;4943860;29;20310;-45
2022/05/20 10:54:23;;;;;;;9.88;2.88;;;;;;;;;;4954524;29;20214;-44
2022/05/20 10:56:56;;;;;;;13.07;3.40;;;;;;;;;;4953310;28;20654;-45
2022/05/20 10:59:32;;;;;;;7.88;2.58;;;;;;;;;;4939400;29;20243;-45
2022/05/20 11:02:18;;;;;;;6.32;2.90;;;;;;;;;;4954303;28;20214;-43
2022/05/20 11:05:14;;;;;;;11.52;2.92;;;;;;;;;;4953978;29;20227;-45
2022/05/20 11:07:52;;;;;;;7.72;2.55;;;;;;;;;;4940910;29;20231;-44
2022/05/20 11:10:46;;;;;;;7.85;2.78;;;;;;;;;;4920419;29;20232;-43
2022/05/20 11:13:48;;;;;;;16.08;2.70;;;;;;;;;;4937027;29;20239;-42
2022/05/20 11:16:24;;;;;;;9.68;2.78;;;;;;;;;;4920238;29;20227;-42
2022/05/20 11:19:15;;;;;;;20.80;3.05;;;;;;;;;;4949732;29;20255;-44
2022/05/20 11:22:00;;;;;;;8.35;3.17;;;;;;;;;;4953682;29;20310;-43
2022/05/20 11:24:49;;;;;;;49.42;3.83;;;;;;;;;;4953623;29;20706;-47
2022/05/20 11:27:25;;;;;;;13.30;2.80;;;;;;;;;;4951158;29;20544;-42
2022/05/20 11:30:41;;;;;;;9.75;2.75;;;;;;;;;;4954039;29;20219;-43
2022/05/20 11:33:46;;;;;;;16.27;2.67;;;;;;;;;;4901565;29;20224;-42
2022/05/20 11:36:27;;;;;;;8.48;2.78;;;;;;;;;;4952249;28;20320;-42
2022/05/20 11:38:55;;;;;;;5.07;2.58;;;;;;;;;;4950114;28;20326;-44
2022/05/20 11:41:42;;;;;;;8.05;2.38;;;;;;;;;;4958512;28;20290;-44
2022/05/20 11:44:32;;;;;;;12.95;2.92;;;;;;;;;;4956225;29;20266;-43
2022/05/20 11:46:59;;;;;;;11.13;2.63;;;;;;;;;;4957197;28;20282;-44
2022/05/20 11:49:41;;;;;;;8.43;3.10;;;;;;;;;;4958474;28;20215;-45
2022/05/20 11:52:11;;;;;;;11.90;3.13;;;;;;;;;;4953500;29;20313;-43
2022/05/20 11:54:52;;;;;;;7.93;2.40;;;;;;;;;;4958044;29;20224;-44
2022/05/20 11:57:22;;;;;;;16.55;2.80;;;;;;;;;;4942270;29;20223;-43
2022/05/20 12:00:00;;;;;;;10.85;2.65;;;;;;;;;;4958708;29;20238;-44
2022/05/20 12:02:28;;;;;;;11.07;2.42;;;;;;;;;;4959446;28;20218;-43
2022/05/20 12:04:56;;;;;;;13.90;2.70;;;;;;;;;;4949005;29;20243;-44
2022/05/20 12:07:24;;;;;;;11.68;2.70;;;;;;;;;;4940108;29;20242;-44
2022/05/20 12:09:54;;;;;;;9.80;2.72;;;;;;;;;;4956553;29;20239;-45
2022/05/20 12:12:33;;;;;;;12.65;2.53;;;;;;;;;;4956958;29;20575;-43
2022/05/20 12:15:11;;;;;;;4.88;2.42;;;;;;;;;;4942060;29;20694;-43
2022/05/20 12:17:50;;;;;;;8.13;2.20;;;;;;;;;;4955806;29;20235;-45
2022/05/20 12:26:15;;;;;;;10.05;2.58;;;;;;;;;;4956635;29;20231;-43
2022/05/20 12:28:42;;;;;;;15.43;2.28;;;;;;;;;;4956467;29;20237;-42
2022/05/20 12:31:24;;;;;;;13.15;2.35;;;;;;;;;;4956765;29;20239;-43
2022/05/20 12:33:54;;;;;;;8.23;2.70;;;;;;;;;;4955891;28;20235;-43
2022/05/20 12:36:27;;;;;;;12.40;2.78;;;;;;;;;;4956973;29;20223;-43
2022/05/20 12:39:06;;;;;;;9.15;2.67;;;;;;;;;;4955597;29;20289;-43
2022/05/20 12:41:54;;;;;;;8.55;2.47;;;;;;;;;;4954980;29;20587;-44
2022/05/20 12:44:21;;;;;;;8.52;2.60;;;;;;;;;;4940778;29;20238;-43
2022/05/20 12:47:18;;;;;;;7.35;2.40;;;;;;;;;;4954726;29;20219;-46
2022/05/20 12:49:48;;;;;;;13.25;1.90;;;;;;;;;;4939276;29;20334;-45
2022/05/20 12:52:17;;;;;;;15.00;2.45;;;;;;;;;;4955471;28;20250;-46
2022/05/20 12:54:46;;;;;;;6.15;1.80;;;;;;;;;;4955957;29;20616;-48
2022/05/20 12:57:17;;;;;;;9.65;1.90;;;;;;;;;;4956206;29;20580;-43
2022/05/20 12:59:56;;;;;;;5.70;2.17;;;;;;;;;;4955474;29;20231;-45
2022/05/20 13:02:28;;;;;;;12.18;2.38;;;;;;;;;;4953942;29;20279;-44
2022/05/20 13:05:02;;;;;;;6.93;2.45;;;;;;;;;;4936277;29;20290;-44
2022/05/20 13:07:30;;;;;;;8.90;2.30;;;;;;;;;;4950264;29;20238;-45
2022/05/20 13:09:57;;;;;;;6.65;2.38;;;;;;;;;;4937673;29;20231;-46
2022/05/20 13:12:25;;;;;;;11.88;2.28;;;;;;;;;;4954003;29;20321;-51
2022/05/20 13:15:00;;;;;;;8.38;2.05;;;;;;;;;;4954023;29;20681;-44
2022/05/20 13:17:30;;;;;;;11.65;2.55;;;;;;;;;;4933286;29;20219;-44
2022/05/20 13:19:59;;;;;;;9.63;3.30;;;;;;;;;;4955445;29;20247;-43
2022/05/20 13:22:28;;;;;;;8.45;2.50;;;;;;;;;;4955130;29;20230;-44
2022/05/20 13:25:09;;;;;;;8.75;2.40;;;;;;;;;;4952445;29;20620;-44
2022/05/20 13:27:44;;;;;;;8.13;2.25;;;;;;;;;;4947025;29;20319;-45
2022/05/20 13:30:17;;;;;;;5.13;2.55;;;;;;;;;;4954331;29;20234;-45
2022/05/20 13:32:45;;;;;;;8.60;2.70;;;;;;;;;;4953618;29;20804;-49
2022/05/20 13:35:12;;;;;;;6.90;2.40;;;;;;;;;;4954670;29;20231;-46
2022/05/20 13:37:49;;;;;;;6.75;2.20;;;;;;;;;;4954415;29;20215;-46
2022/05/20 13:40:37;;;;;;;5.05;1.98;;;;;;;;;;4951454;29;20227;-47
2022/05/20 13:43:04;;;;;;;9.95;2.33;;;;;;;;;;4950550;29;20236;-45
2022/05/20 13:51:11;;;;;;;9.23;2.45;;;;;;;;;;4933816;29;20278;-53
2022/05/20 13:53:40;;;;;;;14.63;2.65;;;;;;;;;;4937299;29;20707;-51
2022/05/20 13:56:09;;;;;;;6.22;2.38;;;;;;;;;;4954496;29;20238;-47
2022/05/20 13:58:41;;;;;;;15.32;2.45;;;;;;;;;;4921685;29;20236;-51
2022/05/20 14:01:10;;;;;;;4.13;2.15;;;;;;;;;;4918121;29;20235;-49
2022/05/20 14:03:42;;;;;;;13.75;2.20;;;;;;;;;;4919235;29;20228;-50
2022/05/20 14:06:20;;;;;;;5.70;1.98;;;;;;;;;;4936609;29;20330;-51
2022/05/20 14:08:59;;;;;;;9.82;1.92;;;;;;;;;;4954817;29;20666;-46
2022/05/20 14:11:35;;;;;;;8.02;2.35;;;;;;;;;;4940210;29;20231;-46
2022/05/20 14:14:04;;;;;;;5.07;2.00;;;;;;;;;;4955374;29;20327;-47
2022/05/20 14:16:33;;;;;;;5.97;2.08;;;;;;;;;;4947905;29;20314;-49
2022/05/20 14:19:06;;;;;;;7.60;1.90;;;;;;;;;;4955009;29;20227;-51
2022/05/20 14:21:38;;;;;;;6.18;2.25;;;;;;;;;;4954416;29;20243;-47
2022/05/20 14:24:12;;;;;;;4.32;1.90;;;;;;;;;;4955711;29;20232;-46
2022/05/20 14:26:48;;;;;;;7.63;2.30;;;;;;;;;;4954473;29;20231;-51
2022/05/20 14:29:21;;;;;;;13.48;2.40;;;;;;;;;;4955062;28;20293;-55
2022/05/20 14:31:53;;;;;;;10.35;2.45;;;;;;;;;;4953616;29;20290;-52
2022/05/20 14:34:27;;;;;;;7.32;2.30;;;;;;;;;;4943826;28;20634;-48
2022/05/20 14:36:58;;;;;;;8.13;2.20;;;;;;;;;;4939209;29;20462;-46
2022/05/20 14:39:27;;;;;;;7.63;2.40;;;;;;;;;;4955717;29;20242;-47
2022/05/20 14:42:19;;;;;;;12.10;2.33;;;;;;;;;;4954320;29;20244;-46
2022/05/20 14:44:53;;;;;;;8.80;2.78;;;;;;;;;;4954341;29;20678;-47
2022/05/20 14:47:28;;;;;;;9.10;2.45;;;;;;;;;;4953817;29;20223;-48
2022/05/20 14:50:14;;;;;;;8.02;2.65;;;;;;;;;;4938543;29;20685;-51
2022/05/20 14:52:47;;;;;;;5.65;2.30;;;;;;;;;;4938679;29;20231;-48
2022/05/20 14:55:49;;;;;;;5.05;2.05;;;;;;;;;;4955598;29;20282;-47
2022/05/20 14:58:25;;;;;;;11.02;2.75;;;;;;;;;;4941668;29;20234;-47
2022/05/20 15:00:58;;;;;;;45.35;3.67;;;;;;;;;;4954580;29;20226;-47
2022/05/20 15:03:30;;;;;;;14.38;2.75;;;;;;;;;;4935693;29;20227;-46
2022/05/20 15:05:59;;;;;;;8.25;2.75;;;;;;;;;;4953305;29;20329;-47
2022/05/20 15:08:30;;;;;;;9.35;2.72;;;;;;;;;;4955486;29;20227;-47
2022/05/20 15:11:11;;;;;;;9.23;3.13;;;;;;;;;;4954334;29;20610;-51
2022/05/20 15:13:38;;;;;;;10.75;4.55;;;;;;;;;;4954419;28;20583;-48
2022/05/20 15:16:06;;;;;;;9.57;3.10;;;;;;;;;;4958255;29;20223;-49
2022/05/20 15:18:33;;;;;;;12.40;3.22;;;;;;;;;;4942493;29;20242;-48
2022/05/20 15:21:03;;;;;;;10.63;2.58;;;;;;;;;;4959244;29;20262;-49
2022/05/20 15:23:50;;;;;;;8.90;2.90;;;;;;;;;;4958594;29;20230;-48
2022/05/20 15:26:26;;;;;;;14.40;3.22;;;;;;;;;;4960525;29;20219;-48
2022/05/20 15:28:54;;;;;;;11.57;3.10;;;;;;;;;;4960548;29;20191;-51
2022/05/20 15:37:10;;;;;;;9.90;3.00;;;;;;;;;;4956361;29;20200;-50
2022/05/20 15:39:41;;;;;;;5.20;2.80;;;;;;;;;;4960217;29;20206;-51
2022/05/20 15:42:09;;;;;;;4.95;2.50;;;;;;;;;;4953883;29;20238;-51
2022/05/20 15:44:36;;;;;;;3.63;2.20;;;;;;;;;;4958445;29;20239;-45
2022/05/20 15:47:03;;;;;;;12.68;2.72;;;;;;;;;;4954952;29;20234;-47
2022/05/20 15:49:30;;;;;;;12.32;2.63;;;;;;;;;;4957433;29;20300;-45
2022/05/20 15:51:58;;;;;;;9.02;2.67;;;;;;;;;;4958081;29;20223;-45
2022/05/20 15:54:26;;;;;;;4.78;2.63;;;;;;;;;;4955469;29;20229;-46
2022/05/20 15:56:54;;;;;;;6.30;2.40;;;;;;;;;;4953964;29;20227;-46
2022/05/20 15:59:26;;;;;;;8.68;2.40;;;;;;;;;;4957479;29;20234;-50
2022/05/20 16:01:53;;;;;;;12.52;2.35;;;;;;;;;;4941060;29;20223;-45
2022/05/20 16:04:20;;;;;;;7.40;2.45;;;;;;;;;;4956854;29;20322;-49
2022/05/20 16:06:47;;;;;;;11.68;2.50;;;;;;;;;;4957248;29;20226;-44